Airfield :
LOGIN :

Register | Disclaimer

   EN    FR    IT 

 










Legend :    VFR   Marginal VFR   IFR   Intensive IFR   Very Intensive IFR
Visi :
Ceiling :
>= 8 km
>= 3000ft
5 to 8 km
1000 to 3000 ft
1500m to 5 km
500 to 1000 ft
800 to 1500m
200 to 500 ft
< 800m
< 200 ft
Symbols :   Thunderstorms  Fog  Heavy snow  Heavy precipitations  Wind > 20 kt
SIGMETs :     Misc.  Thunderstorms  Icing  Turbulence  Mountain Waves  Volcanic Ashes






- Airport Elevation : 2776 ft
- IATA code : VLL


LEVD - Valladolid

CURRENT METAR :
  • 291000Z 27014KT 9999 SCT012 12/08 Q1009

EXPIRED METARs :
  • 290930Z 25015KT 9999 BKN013 12/08 Q1009
  • 290918Z 26016KT 9999 BKN013 12/08 Q1009
  • 290900Z 27015KT 9999 FEW049 12/08 Q1009
  • 290830Z 27016KT 230V290 9999 FEW012 11/08 Q1010
  • 290800Z 27015KT 9999 FEW049 11/07 Q1010
  • 290730Z 26013KT 9999 FEW012 10/07 Q1010

TAF TAF LEVD
Valid from the 29 at 09:00 until the 30 at 09:00 UTC


290800Z 2909/3009 27010KT 9999 FEW045 TX17/2915Z TN05/3006Z
BECMG 2915/2917 VRB05KT
PROB30
TEMPO 2910/2917 27015G25KT
PROB30
TEMPO 2909/2918 RA BKN014
PROB40
TEMPO 2917/2921 36010KT



MET'MAP, your aeronautical weather chart ! - Copyright ORBIFLY December 2007 - Disclaimer

ORBIFLY MET'MAP TEAM :

Programming & Development : Alexandra Zaïnal
Original concept : Baudouin d'Aumeries
Technical & hardware support : Manuel Goepfert
Assistance : Marc-Olivier Méhu




SOURCES & CREDITS :

   NOAA